JBU821 KFLL-KEYW
Flight info
| Callsign | JBU821 |
|---|---|
| Flight time | 0h 39m |
| Altitude | 22000 |
| Route | MAYNR3 MAYNR DCT FNTSY FNTSY1 |
| Aircraft | A320/M-SDE3FGHIRWY/LB1 |
Departure
| Time | 2026-05-04 02:53 |
|---|---|
| Airport | Fort Lauderdale Hollywood International Airport (KFLL) |
Arrival
| Time | 2026-05-04 03:32 |
|---|---|
| Airport | Key West International Airport (KEYW) |
| Time | Latitude | Longitude | Altitude | Speed | Heading |
|---|---|---|---|---|---|
| 2026-05-04 02:32 | 26.07264 | -80.14655 | 16 ft | 0 kts | 36° |
| 2026-05-04 02:43 | 26.07254 | -80.14663 | 17 ft | 4 kts | 32° |
| 2026-05-04 02:44 | 26.07230 | -80.14677 | 17 ft | 4 kts | 13° |
| 2026-05-04 02:44 | 26.07207 | -80.14677 | 16 ft | 4 kts | 316° |
| 2026-05-04 02:44 | 26.07202 | -80.14670 | 17 ft | 0 kts | 288° |
| 2026-05-04 02:47 | 26.07211 | -80.14699 | 16 ft | 7 kts | 288° |
| 2026-05-04 02:47 | 26.07230 | -80.14754 | 16 ft | 9 kts | 293° |
| 2026-05-04 02:48 | 26.07262 | -80.14823 | 16 ft | 11 kts | 298° |
| 2026-05-04 02:48 | 26.07331 | -80.14856 | 16 ft | 13 kts | 353° |
| 2026-05-04 02:48 | 26.07386 | -80.14925 | 16 ft | 14 kts | 295° |
| 2026-05-04 02:48 | 26.07458 | -80.14918 | 16 ft | 13 kts | 32° |
| 2026-05-04 02:49 | 26.07535 | -80.14852 | 16 ft | 15 kts | 40° |
| 2026-05-04 02:49 | 26.07571 | -80.14869 | 18 ft | 4 kts | 243° |
| 2026-05-04 02:49 | 26.07562 | -80.14915 | 16 ft | 11 kts | 267° |
| 2026-05-04 02:49 | 26.07559 | -80.15009 | 16 ft | 13 kts | 275° |
| 2026-05-04 02:50 | 26.07566 | -80.15122 | 16 ft | 16 kts | 272° |
| 2026-05-04 02:50 | 26.07565 | -80.15252 | 16 ft | 18 kts | 268° |
| 2026-05-04 02:50 | 26.07561 | -80.15400 | 16 ft | 20 kts | 274° |
| 2026-05-04 02:50 | 26.07569 | -80.15561 | 16 ft | 22 kts | 269° |
| 2026-05-04 02:51 | 26.07567 | -80.15742 | 16 ft | 24 kts | 270° |
| 2026-05-04 02:51 | 26.07573 | -80.15938 | 17 ft | 26 kts | 274° |
| 2026-05-04 02:51 | 26.07575 | -80.16149 | 17 ft | 28 kts | 270° |
| 2026-05-04 02:51 | 26.07570 | -80.16375 | 17 ft | 30 kts | 266° |
| 2026-05-04 02:52 | 26.07583 | -80.16553 | 18 ft | 14 kts | 309° |
| 2026-05-04 02:52 | 26.07595 | -80.16557 | 17 ft | 1 kts | 351° |
| 2026-05-04 02:52 | 26.07630 | -80.16560 | 18 ft | 13 kts | 355° |
| 2026-05-04 02:52 | 26.07693 | -80.16508 | 19 ft | 14 kts | 92° |
| 2026-05-04 02:53 | 26.07690 | -80.16344 | 20 ft | 36 kts | 91° |
| 2026-05-04 02:53 | 26.07692 | -80.15785 | 18 ft | 110 kts | 90° |
| 2026-05-04 02:53 | 26.07714 | -80.14687 | 115 ft | 164 kts | 88° |
| 2026-05-04 02:53 | 26.07719 | -80.13386 | 771 ft | 177 kts | 87° |
| 2026-05-04 02:54 | 26.07764 | -80.11975 | 1449 ft | 189 kts | 88° |
| 2026-05-04 02:54 | 26.07800 | -80.10439 | 1900 ft | 207 kts | 90° |
| 2026-05-04 02:54 | 26.07788 | -80.08794 | 2393 ft | 217 kts | 92° |
| 2026-05-04 02:54 | 26.07765 | -80.07048 | 2785 ft | 236 kts | 90° |
| 2026-05-04 02:55 | 26.07775 | -80.03079 | 3850 ft | 274 kts | 91° |
| 2026-05-04 02:55 | 26.07781 | -80.00921 | 4008 ft | 279 kts | 90° |
| 2026-05-04 02:55 | 26.07820 | -79.98762 | 4009 ft | 280 kts | 89° |
| 2026-05-04 02:56 | 26.07856 | -79.96595 | 4117 ft | 282 kts | 95° |
| 2026-05-04 02:56 | 26.07275 | -79.94535 | 4983 ft | 281 kts | 124° |
| 2026-05-04 02:56 | 26.05940 | -79.92977 | 5839 ft | 280 kts | 150° |
| 2026-05-04 02:56 | 26.04160 | -79.92151 | 6665 ft | 277 kts | 174° |
| 2026-05-04 02:57 | 26.02256 | -79.92190 | 7457 ft | 274 kts | 197° |
| 2026-05-04 02:57 | 26.00526 | -79.93029 | 8270 ft | 272 kts | 214° |
| 2026-05-04 02:57 | 25.98898 | -79.94122 | 9106 ft | 275 kts | 214° |
| 2026-05-04 02:57 | 25.97250 | -79.95229 | 9971 ft | 279 kts | 214° |
| 2026-05-04 02:58 | 25.95540 | -79.96376 | 10450 ft | 297 kts | 214° |
| 2026-05-04 02:58 | 25.93702 | -79.97612 | 10694 ft | 321 kts | 214° |
| 2026-05-04 02:58 | 25.91723 | -79.98936 | 11053 ft | 340 kts | 214° |
| 2026-05-04 02:58 | 25.89678 | -80.00297 | 11686 ft | 344 kts | 213° |
| 2026-05-04 02:59 | 25.87613 | -80.01667 | 12350 ft | 347 kts | 213° |
| 2026-05-04 02:59 | 25.85525 | -80.03048 | 13011 ft | 350 kts | 213° |
| 2026-05-04 02:59 | 25.83452 | -80.04421 | 13658 ft | 353 kts | 213° |
| 2026-05-04 02:59 | 25.81331 | -80.05828 | 14256 ft | 356 kts | 213° |
| 2026-05-04 03:00 | 25.79202 | -80.07242 | 14824 ft | 358 kts | 213° |
| 2026-05-04 03:00 | 25.77057 | -80.08667 | 15401 ft | 360 kts | 214° |
| 2026-05-04 03:00 | 25.74905 | -80.10098 | 15992 ft | 362 kts | 214° |
| 2026-05-04 03:00 | 25.72733 | -80.11540 | 16593 ft | 364 kts | 214° |
| 2026-05-04 03:01 | 25.70549 | -80.12989 | 17178 ft | 367 kts | 214° |
| 2026-05-04 03:01 | 25.68350 | -80.14444 | 17774 ft | 370 kts | 214° |
| 2026-05-04 03:01 | 25.66129 | -80.15915 | 18377 ft | 372 kts | 214° |
| 2026-05-04 03:01 | 25.63895 | -80.17395 | 18902 ft | 375 kts | 214° |
| 2026-05-04 03:02 | 25.61652 | -80.18878 | 19442 ft | 377 kts | 215° |
| 2026-05-04 03:02 | 25.59389 | -80.20374 | 19940 ft | 380 kts | 215° |
| 2026-05-04 03:02 | 25.57111 | -80.21881 | 20463 ft | 383 kts | 215° |
| 2026-05-04 03:02 | 25.54816 | -80.23399 | 20974 ft | 385 kts | 215° |
| 2026-05-04 03:03 | 25.52509 | -80.24925 | 21459 ft | 388 kts | 215° |
| 2026-05-04 03:03 | 25.50185 | -80.26461 | 21904 ft | 390 kts | 215° |
| 2026-05-04 03:03 | 25.47860 | -80.27999 | 22028 ft | 392 kts | 215° |
| 2026-05-04 03:03 | 25.45481 | -80.29574 | 22056 ft | 405 kts | 215° |
| 2026-05-04 03:04 | 25.43060 | -80.31175 | 22054 ft | 415 kts | 215° |
| 2026-05-04 03:04 | 25.40567 | -80.32821 | 22053 ft | 419 kts | 215° |
| 2026-05-04 03:04 | 25.38060 | -80.34473 | 22057 ft | 420 kts | 215° |
| 2026-05-04 03:04 | 25.35551 | -80.36123 | 22053 ft | 420 kts | 215° |
| 2026-05-04 03:05 | 25.33038 | -80.37772 | 22050 ft | 420 kts | 215° |
| 2026-05-04 03:05 | 25.30524 | -80.39424 | 22050 ft | 421 kts | 215° |
| 2026-05-04 03:05 | 25.27998 | -80.41085 | 22056 ft | 422 kts | 214° |
| 2026-05-04 03:05 | 25.25473 | -80.42744 | 22054 ft | 422 kts | 214° |
| 2026-05-04 03:06 | 25.22827 | -80.44194 | 22051 ft | 427 kts | 206° |
| 2026-05-04 03:06 | 25.19988 | -80.45213 | 22051 ft | 430 kts | 201° |
| 2026-05-04 03:06 | 25.17126 | -80.46150 | 22046 ft | 429 kts | 201° |
| 2026-05-04 03:06 | 25.14258 | -80.47082 | 22046 ft | 429 kts | 201° |
| 2026-05-04 03:07 | 25.11391 | -80.48015 | 22040 ft | 429 kts | 201° |
| 2026-05-04 03:07 | 25.08529 | -80.48950 | 22038 ft | 430 kts | 201° |
| 2026-05-04 03:07 | 25.05655 | -80.49887 | 22038 ft | 430 kts | 201° |
| 2026-05-04 03:07 | 25.02790 | -80.50821 | 22039 ft | 430 kts | 201° |
| 2026-05-04 03:08 | 24.99914 | -80.51761 | 22022 ft | 430 kts | 201° |
| 2026-05-04 03:08 | 24.97046 | -80.52699 | 22028 ft | 430 kts | 201° |
| 2026-05-04 03:08 | 24.94171 | -80.53637 | 22031 ft | 431 kts | 201° |
| 2026-05-04 03:08 | 24.91336 | -80.54560 | 22028 ft | 430 kts | 201° |
| 2026-05-04 03:09 | 24.88514 | -80.55497 | 21401 ft | 420 kts | 204° |
| 2026-05-04 03:09 | 24.85933 | -80.56931 | 20479 ft | 412 kts | 218° |
| 2026-05-04 03:09 | 24.83821 | -80.58992 | 19834 ft | 401 kts | 231° |
| 2026-05-04 03:09 | 24.82261 | -80.61488 | 19174 ft | 393 kts | 244° |
| 2026-05-04 03:10 | 24.81305 | -80.64288 | 18549 ft | 389 kts | 256° |
| 2026-05-04 03:10 | 24.80896 | -80.67219 | 17837 ft | 387 kts | 262° |
| 2026-05-04 03:10 | 24.80570 | -80.70142 | 17221 ft | 383 kts | 262° |
| 2026-05-04 03:10 | 24.80248 | -80.73037 | 16630 ft | 379 kts | 262° |
| 2026-05-04 03:11 | 24.79925 | -80.75903 | 16037 ft | 376 kts | 262° |
| 2026-05-04 03:11 | 24.79602 | -80.78758 | 15427 ft | 374 kts | 262° |
| 2026-05-04 03:11 | 24.79282 | -80.81582 | 14825 ft | 371 kts | 262° |
| 2026-05-04 03:11 | 24.78960 | -80.84394 | 14203 ft | 369 kts | 262° |
| 2026-05-04 03:12 | 24.78640 | -80.87189 | 13534 ft | 367 kts | 262° |
| 2026-05-04 03:12 | 24.78323 | -80.89970 | 12878 ft | 364 kts | 262° |
| 2026-05-04 03:12 | 24.78010 | -80.92718 | 12229 ft | 360 kts | 262° |
| 2026-05-04 03:12 | 24.77697 | -80.95439 | 11584 ft | 356 kts | 262° |
| 2026-05-04 03:13 | 24.77386 | -80.98127 | 10966 ft | 353 kts | 262° |
| 2026-05-04 03:13 | 24.77036 | -81.00737 | 10787 ft | 336 kts | 256° |
| 2026-05-04 03:13 | 24.76289 | -81.03106 | 10673 ft | 322 kts | 244° |
| 2026-05-04 03:13 | 24.75185 | -81.05199 | 10556 ft | 310 kts | 239° |
| 2026-05-04 03:14 | 24.74077 | -81.07172 | 10427 ft | 297 kts | 239° |
| 2026-05-04 03:14 | 24.73011 | -81.09070 | 10306 ft | 286 kts | 239° |
| 2026-05-04 03:14 | 24.71986 | -81.10898 | 10143 ft | 277 kts | 239° |
| 2026-05-04 03:14 | 24.71001 | -81.12657 | 10019 ft | 270 kts | 239° |
| 2026-05-04 03:15 | 24.70014 | -81.14423 | 9966 ft | 271 kts | 239° |
| 2026-05-04 03:15 | 24.69017 | -81.16207 | 9644 ft | 274 kts | 239° |
| 2026-05-04 03:15 | 24.68020 | -81.17991 | 9241 ft | 274 kts | 239° |
| 2026-05-04 03:15 | 24.67021 | -81.19777 | 8861 ft | 274 kts | 239° |
| 2026-05-04 03:16 | 24.66023 | -81.21557 | 8474 ft | 274 kts | 239° |
| 2026-05-04 03:16 | 24.65023 | -81.23335 | 8195 ft | 272 kts | 238° |
| 2026-05-04 03:16 | 24.63827 | -81.24973 | 7924 ft | 276 kts | 229° |
| 2026-05-04 03:16 | 24.62560 | -81.26561 | 7774 ft | 274 kts | 230° |
| 2026-05-04 03:17 | 24.61329 | -81.28127 | 7549 ft | 268 kts | 230° |
| 2026-05-04 03:17 | 24.60119 | -81.29675 | 7400 ft | 266 kts | 231° |
| 2026-05-04 03:17 | 24.58933 | -81.31194 | 7247 ft | 265 kts | 231° |
| 2026-05-04 03:17 | 24.57732 | -81.32733 | 7095 ft | 265 kts | 231° |
| 2026-05-04 03:18 | 24.56534 | -81.34266 | 6929 ft | 265 kts | 231° |
| 2026-05-04 03:18 | 24.55504 | -81.35933 | 6787 ft | 263 kts | 243° |
| 2026-05-04 03:18 | 24.54666 | -81.37720 | 6632 ft | 263 kts | 243° |
| 2026-05-04 03:18 | 24.53824 | -81.39506 | 6486 ft | 263 kts | 243° |
| 2026-05-04 03:19 | 24.52983 | -81.41287 | 6321 ft | 263 kts | 243° |
| 2026-05-04 03:19 | 24.52143 | -81.43065 | 6168 ft | 262 kts | 243° |
| 2026-05-04 03:19 | 24.51304 | -81.44841 | 6019 ft | 261 kts | 243° |
| 2026-05-04 03:19 | 24.50465 | -81.46608 | 5862 ft | 262 kts | 243° |
| 2026-05-04 03:20 | 24.49621 | -81.48376 | 5717 ft | 260 kts | 243° |
| 2026-05-04 03:20 | 24.48783 | -81.50137 | 5557 ft | 261 kts | 243° |
| 2026-05-04 03:20 | 24.47945 | -81.51906 | 5405 ft | 261 kts | 243° |
| 2026-05-04 03:20 | 24.47113 | -81.53672 | 5251 ft | 261 kts | 244° |
| 2026-05-04 03:21 | 24.46556 | -81.55580 | 5132 ft | 270 kts | 259° |
| 2026-05-04 03:21 | 24.46460 | -81.57633 | 4994 ft | 267 kts | 269° |
| 2026-05-04 03:21 | 24.46452 | -81.59614 | 4798 ft | 260 kts | 268° |
| 2026-05-04 03:21 | 24.46433 | -81.61632 | 4660 ft | 265 kts | 268° |
| 2026-05-04 03:22 | 24.46405 | -81.63696 | 4498 ft | 272 kts | 267° |
| 2026-05-04 03:22 | 24.46373 | -81.65723 | 4361 ft | 260 kts | 269° |
| 2026-05-04 03:22 | 24.46352 | -81.67645 | 4253 ft | 250 kts | 269° |
| 2026-05-04 03:22 | 24.46338 | -81.69517 | 4153 ft | 240 kts | 269° |
| 2026-05-04 03:23 | 24.46326 | -81.71308 | 4051 ft | 229 kts | 269° |
| 2026-05-04 03:23 | 24.46313 | -81.73014 | 3965 ft | 217 kts | 269° |
| 2026-05-04 03:23 | 24.46301 | -81.74636 | 3899 ft | 209 kts | 269° |
| 2026-05-04 03:23 | 24.46285 | -81.76229 | 3838 ft | 207 kts | 268° |
| 2026-05-04 03:24 | 24.46266 | -81.77810 | 3776 ft | 208 kts | 268° |
| 2026-05-04 03:24 | 24.46250 | -81.79402 | 3705 ft | 209 kts | 269° |
| 2026-05-04 03:24 | 24.46233 | -81.80992 | 3639 ft | 208 kts | 268° |
| 2026-05-04 03:24 | 24.46216 | -81.82585 | 3582 ft | 209 kts | 269° |
| 2026-05-04 03:25 | 24.46197 | -81.84152 | 3501 ft | 206 kts | 269° |
| 2026-05-04 03:25 | 24.46178 | -81.85726 | 3442 ft | 205 kts | 269° |
| 2026-05-04 03:25 | 24.46161 | -81.87292 | 3378 ft | 205 kts | 268° |
| 2026-05-04 03:25 | 24.46144 | -81.88864 | 3309 ft | 206 kts | 269° |
| 2026-05-04 03:26 | 24.46127 | -81.90439 | 3245 ft | 206 kts | 269° |
| 2026-05-04 03:26 | 24.46111 | -81.92014 | 3181 ft | 206 kts | 269° |
| 2026-05-04 03:26 | 24.46095 | -81.93580 | 3115 ft | 205 kts | 269° |
| 2026-05-04 03:26 | 24.46246 | -81.95095 | 3040 ft | 196 kts | 290° |
| 2026-05-04 03:27 | 24.47073 | -81.96258 | 2971 ft | 198 kts | 323° |
| 2026-05-04 03:27 | 24.48380 | -81.96712 | 2697 ft | 201 kts | 356° |
| 2026-05-04 03:27 | 24.49785 | -81.96718 | 2438 ft | 202 kts | 357° |
| 2026-05-04 03:27 | 24.51164 | -81.96732 | 2177 ft | 200 kts | 357° |
| 2026-05-04 03:28 | 24.52544 | -81.96748 | 1932 ft | 197 kts | 357° |
| 2026-05-04 03:28 | 24.53919 | -81.96604 | 1692 ft | 207 kts | 20° |
| 2026-05-04 03:28 | 24.55043 | -81.95621 | 1521 ft | 210 kts | 52° |
| 2026-05-04 03:28 | 24.55417 | -81.94115 | 1559 ft | 201 kts | 90° |
| 2026-05-04 03:29 | 24.55414 | -81.92651 | 1523 ft | 183 kts | 86° |
| 2026-05-04 03:29 | 24.55431 | -81.91285 | 1508 ft | 177 kts | 88° |
| 2026-05-04 03:29 | 24.55452 | -81.89976 | 1488 ft | 162 kts | 88° |
| 2026-05-04 03:29 | 24.55471 | -81.88755 | 1511 ft | 158 kts | 89° |
| 2026-05-04 03:30 | 24.55482 | -81.87940 | 1509 ft | 156 kts | 89° |
| 2026-05-04 03:30 | 24.55497 | -81.86755 | 1499 ft | 155 kts | 87° |
| 2026-05-04 03:30 | 24.55511 | -81.85599 | 1502 ft | 152 kts | 90° |
| 2026-05-04 03:30 | 24.55524 | -81.84421 | 1451 ft | 158 kts | 87° |
| 2026-05-04 03:31 | 24.55538 | -81.83239 | 1225 ft | 153 kts | 87° |
| 2026-05-04 03:31 | 24.55552 | -81.82059 | 1008 ft | 155 kts | 85° |
| 2026-05-04 03:31 | 24.55565 | -81.80891 | 796 ft | 153 kts | 87° |
| 2026-05-04 03:31 | 24.55578 | -81.79730 | 603 ft | 149 kts | 89° |
| 2026-05-04 03:32 | 24.55590 | -81.78597 | 400 ft | 147 kts | 89° |
| 2026-05-04 03:32 | 24.55604 | -81.77489 | 171 ft | 143 kts | 90° |
| 2026-05-04 03:32 | 24.55606 | -81.76415 | 10 ft | 129 kts | 91° |
| 2026-05-04 03:32 | 24.55610 | -81.75765 | 13 ft | 42 kts | 88° |
| 2026-05-04 03:33 | 24.55614 | -81.75649 | 14 ft | 10 kts | 88° |
| 2026-05-04 03:33 | 24.55591 | -81.75593 | 14 ft | 9 kts | 159° |
| 2026-05-04 03:33 | 24.55556 | -81.75585 | 13 ft | 1 kts | 198° |
| 2026-05-04 03:33 | 24.55533 | -81.75591 | 13 ft | 6 kts | 193° |
| 2026-05-04 03:34 | 24.55520 | -81.75593 | 12 ft | 0 kts | 174° |
| 2026-05-04 03:34 | 24.55513 | -81.75589 | 12 ft | 1 kts | 136° |
| 2026-05-04 03:34 | 24.55501 | -81.75573 | 12 ft | 4 kts | 132° |
| 2026-05-04 03:34 | 24.55486 | -81.75536 | 12 ft | 7 kts | 103° |
| 2026-05-04 03:35 | 24.55452 | -81.75500 | 12 ft | 8 kts | 171° |
| 2026-05-04 03:35 | 24.55440 | -81.75501 | 12 ft | 0 kts | 183° |